Lloydminster Airport
CYLL : now visible

Airfield :











YOU CAN JOIN US ON...

 
LOGIN :

Register | Disclaimer

   EN    FR    IT 

 









Legend :    VFR   Marginal VFR   IFR   Intensive IFR   Very Intensive IFR
Visi :
Ceiling :
>= 8 km
>= 3000ft
5 to 8 km
1000 to 3000 ft
1500m to 5 km
500 to 1000 ft
800 to 1500m
200 to 500 ft
< 800m
< 200 ft
Symbols :   Thunderstorms  Fog  Heavy snow  Heavy precipitations  Wind > 20 kt






- Airport Elevation : 2193 ft
- IATA code : YLL


CYLL - Lloydminster

CURRENT METAR :
  • 170400Z 27005KT 15SM BKN075 BKN095 BKN260 07/01 A2973 RMK AC5AC1CI1 LAST STFD OBS/NXT 171300Z SLP087

EXPIRED METARs :
  • 170300Z 30009KT 15SM FEW075 SCT130 SCT260 11/M00 A2972 RMK AC2AC1CI1 SLP080 DENSITY ALT 2500FT
  • 170200Z 32009G17KT 15SM SCT075 SCT260 13/M00 A2971 RMK AC3CI1 SLP074 DENSITY ALT 2700FT
  • 170100Z CCA 32015KT 15SM BKN085 BKN210 13/M01 A2970 RMK AC5CI1 PCPN DIST E SLP073 DENSITY ALT 2800FT
  • 170000Z 32019G25KT 15SM BKN075 BKN260 13/M01 A2968 RMK AC6CI1 SLP065 DENSITY ALT 2800FT

TAF TAF CYLL
Valid from the 17 at 00:00 until the 17 at 12:00 UTC


162340Z 1700/1712 32018G28KT P6SM BKN070
BECMG 1700/1702 30012KT
FM170200 30012KT P6SM SCT070 RMK NXT FCST BY 170600Z
CZEG FIR / North America



MET'MAP, your aeronautical weather chart ! - Copyright ORBIFLY December 2007 - Disclaimer

ORBIFLY MET'MAP TEAM :

Programming & Development : Alexandra Zaïnal
Original concept : Baudouin d'Aumeries
Technical & hardware support : Manuel Goepfert
Assistance : Marc-Olivier Méhu




SOURCES & CREDITS :

   NOAA       Earth
Advisory